sensor_id;sensor_type;location;lat;lon;timestamp;pressure;altitude;pressure_sealevel;temperature;humidity
21781;BME280;52576;53.614;9.894;2024-01-15T00:01:15;99019.00;;;0.52;100.00
21781;BME280;52576;53.614;9.894;2024-01-15T00:03:18;99019.00;;;0.52;100.00
21781;BME280;52576;53.614;9.894;2024-01-15T00:05:21;99011.16;;;0.53;100.00
21781;BME280;52576;53.614;9.894;2024-01-15T00:07:24;99023.97;;;0.55;100.00
21781;BME280;52576;53.614;9.894;2024-01-15T00:09:29;99025.63;;;0.56;100.00
21781;BME280;52576;53.614;9.894;2024-01-15T00:11:32;99020.47;;;0.56;100.00
21781;BME280;52576;53.614;9.894;2024-01-15T00:13:35;99023.88;;;0.56;100.00
21781;BME280;52576;53.614;9.894;2024-01-15T00:15:38;99028.28;;;0.54;100.00
21781;BME280;52576;53.614;9.894;2024-01-15T00:17:41;99013.84;;;0.52;100.00
21781;BME280;52576;53.614;9.894;2024-01-15T00:19:44;99019.81;;;0.52;100.00
21781;BME280;52576;53.614;9.894;2024-01-15T00:21:48;99003.69;;;0.49;100.00
21781;BME280;52576;53.614;9.894;2024-01-15T00:23:51;98999.53;;;0.46;100.00
21781;BME280;52576;53.614;9.894;2024-01-15T00:25:54;99000.53;;;0.44;100.00
21781;BME280;52576;53.614;9.894;2024-01-15T00:27:58;98991.13;;;0.43;100.00
21781;BME280;52576;53.614;9.894;2024-01-15T00:30:01;98967.94;;;0.43;100.00
21781;BME280;52576;53.614;9.894;2024-01-15T00:32:05;98976.59;;;0.42;100.00
21781;BME280;52576;53.614;9.894;2024-01-15T00:34:08;98967.94;;;0.43;100.00
21781;BME280;52576;53.614;9.894;2024-01-15T00:36:11;98969.59;;;0.44;100.00
21781;BME280;52576;53.614;9.894;2024-01-15T00:38:14;98969.59;;;0.44;100.00
21781;BME280;52576;53.614;9.894;2024-01-15T00:40:17;98979.75;;;0.47;100.00
21781;BME280;52576;53.614;9.894;2024-01-15T00:42:21;98967.78;;;0.46;100.00
21781;BME280;52576;53.614;9.894;2024-01-15T00:44:24;98974.59;;;0.47;100.00
21781;BME280;52576;53.614;9.894;2024-01-15T00:46:27;98957.31;;;0.49;100.00
21781;BME280;52576;53.614;9.894;2024-01-15T00:48:30;98966.78;;;0.48;100.00
21781;BME280;52576;53.614;9.894;2024-01-15T00:50:34;98953.81;;;0.50;100.00
21781;BME280;52576;53.614;9.894;2024-01-15T00:52:37;98972.59;;;0.52;100.00
21781;BME280;52576;53.614;9.894;2024-01-15T00:54:40;98972.59;;;0.52;100.00
21781;BME280;52576;53.614;9.894;2024-01-15T00:56:43;98952.16;;;0.49;100.00
21781;BME280;52576;53.614;9.894;2024-01-15T00:58:47;98942.91;;;0.45;100.00
21781;BME280;52576;53.614;9.894;2024-01-15T01:00:50;98954.13;;;0.44;100.00
21781;BME280;52576;53.614;9.894;2024-01-15T01:02:53;98946.47;;;0.42;100.00
21781;BME280;52576;53.614;9.894;2024-01-15T01:04:55;98944.00;;;0.41;100.00
21781;BME280;52576;53.614;9.894;2024-01-15T01:06:58;98939.75;;;0.40;100.00
21781;BME280;52576;53.614;9.894;2024-01-15T01:09:02;98927.69;;;0.40;100.00
21781;BME280;52576;53.614;9.894;2024-01-15T01:11:05;98925.94;;;0.41;100.00
21781;BME280;52576;53.614;9.894;2024-01-15T01:13:08;98919.88;;;0.42;100.00
21781;BME280;52576;53.614;9.894;2024-01-15T01:15:13;98926.69;;;0.43;100.00
21781;BME280;52576;53.614;9.894;2024-01-15T01:17:15;98906.91;;;0.43;100.00
21781;BME280;52576;53.614;9.894;2024-01-15T01:19:18;98904.25;;;0.45;100.00
21781;BME280;52576;53.614;9.894;2024-01-15T01:21:22;98893.78;;;0.48;100.00
21781;BME280;52576;53.614;9.894;2024-01-15T01:23:25;98895.28;;;0.52;100.00
21781;BME280;52576;53.614;9.894;2024-01-15T01:25:28;98902.72;;;0.56;100.00
21781;BME280;52576;53.614;9.894;2024-01-15T01:27:31;98886.25;;;0.59;100.00
21781;BME280;52576;53.614;9.894;2024-01-15T01:29:34;98899.91;;;0.61;100.00
21781;BME280;52576;53.614;9.894;2024-01-15T01:31:43;98919.53;;;0.63;100.00
21781;BME280;52576;53.614;9.894;2024-01-15T01:33:47;98914.28;;;0.65;100.00
21781;BME280;52576;53.614;9.894;2024-01-15T01:35:50;98915.94;;;0.66;100.00
21781;BME280;52576;53.614;9.894;2024-01-15T01:37:52;98914.94;;;0.68;100.00
21781;BME280;52576;53.614;9.894;2024-01-15T01:39:55;98914.88;;;0.70;100.00
21781;BME280;52576;53.614;9.894;2024-01-15T01:41:58;98902.63;;;0.74;100.00
21781;BME280;52576;53.614;9.894;2024-01-15T01:44:01;98903.38;;;0.76;100.00
21781;BME280;52576;53.614;9.894;2024-01-15T01:46:04;98899.78;;;0.78;100.00
21781;BME280;52576;53.614;9.894;2024-01-15T01:48:09;98904.84;;;0.80;100.00
21781;BME280;52576;53.614;9.894;2024-01-15T01:50:13;98912.50;;;0.81;100.00
21781;BME280;52576;53.614;9.894;2024-01-15T01:52:17;98907.34;;;0.81;100.00
21781;BME280;52576;53.614;9.894;2024-01-15T01:54:20;98919.41;;;0.81;100.00
21781;BME280;52576;53.614;9.894;2024-01-15T01:56:23;98902.25;;;0.80;100.00
21781;BME280;52576;53.614;9.894;2024-01-15T01:58:27;98898.84;;;0.79;100.00
21781;BME280;52576;53.614;9.894;2024-01-15T02:00:32;98904.84;;;0.80;100.00
21781;BME280;52576;53.614;9.894;2024-01-15T02:02:36;98906.50;;;0.81;100.00
21781;BME280;52576;53.614;9.894;2024-01-15T02:04:41;98902.19;;;0.81;100.00
21781;BME280;52576;53.614;9.894;2024-01-15T02:06:45;98904.66;;;0.83;100.00
21781;BME280;52576;53.614;9.894;2024-01-15T02:08:48;98893.53;;;0.82;100.00
21781;BME280;52576;53.614;9.894;2024-01-15T02:10:51;98890.19;;;0.80;100.00
21781;BME280;52576;53.614;9.894;2024-01-15T02:12:54;98883.59;;;0.76;100.00
21781;BME280;52576;53.614;9.894;2024-01-15T02:14:57;98874.44;;;0.71;100.00
21781;BME280;52576;53.614;9.894;2024-01-15T02:17:00;98864.28;;;0.67;100.00
21781;BME280;52576;53.614;9.894;2024-01-15T02:19:03;98873.13;;;0.63;100.00
21781;BME280;52576;53.614;9.894;2024-01-15T02:21:08;98906.72;;;0.62;100.00
21781;BME280;52576;53.614;9.894;2024-01-15T02:23:14;98898.22;;;0.60;100.00
21781;BME280;52576;53.614;9.894;2024-01-15T02:25:18;98881.94;;;0.59;100.00
21781;BME280;52576;53.614;9.894;2024-01-15T02:27:21;98899.91;;;0.61;100.00
21781;BME280;52576;53.614;9.894;2024-01-15T02:29:24;98906.72;;;0.62;100.00
21781;BME280;52576;53.614;9.894;2024-01-15T02:31:27;98896.31;;;0.63;100.00
21781;BME280;52576;53.614;9.894;2024-01-15T02:33:29;98890.25;;;0.64;100.00
21781;BME280;52576;53.614;9.894;2024-01-15T02:35:33;98881.59;;;0.65;100.00
21781;BME280;52576;53.614;9.894;2024-01-15T02:37:38;98881.50;;;0.67;100.00
21781;BME280;52576;53.614;9.894;2024-01-15T02:39:42;98885.75;;;0.68;100.00
21781;BME280;52576;53.614;9.894;2024-01-15T02:41:45;98887.41;;;0.69;100.00
21781;BME280;52576;53.614;9.894;2024-01-15T02:43:48;98889.06;;;0.70;100.00
21781;BME280;52576;53.614;9.894;2024-01-15T02:45:51;98885.59;;;0.71;100.00
21781;BME280;52576;53.614;9.894;2024-01-15T02:47:55;98887.25;;;0.72;100.00
21781;BME280;52576;53.614;9.894;2024-01-15T02:49:58;98872.53;;;0.74;100.00
21781;BME280;52576;53.614;9.894;2024-01-15T02:52:00;98886.25;;;0.75;100.00
21781;BME280;52576;53.614;9.894;2024-01-15T02:54:03;98898.22;;;0.76;100.00
21781;BME280;52576;53.614;9.894;2024-01-15T02:56:08;98880.09;;;0.77;100.00
21781;BME280;52576;53.614;9.894;2024-01-15T02:58:11;98875.75;;;0.78;100.00
21781;BME280;52576;53.614;9.894;2024-01-15T03:00:14;98886.06;;;0.78;100.00
21781;BME280;52576;53.614;9.894;2024-01-15T03:02:18;98881.72;;;0.78;100.00
21781;BME280;52576;53.614;9.894;2024-01-15T03:04:21;98874.09;;;0.77;100.00
21781;BME280;52576;53.614;9.894;2024-01-15T03:06:24;98900.72;;;0.77;100.00
21781;BME280;52576;53.614;9.894;2024-01-15T03:08:27;98892.97;;;0.77;100.00
21781;BME280;52576;53.614;9.894;2024-01-15T03:10:31;98904.00;;;0.79;100.00
21781;BME280;52576;53.614;9.894;2024-01-15T03:12:35;98903.09;;;0.80;100.00
21781;BME280;52576;53.614;9.894;2024-01-15T03:14:38;98903.84;;;0.82;100.00
21781;BME280;52576;53.614;9.894;2024-01-15T03:16:41;98900.34;;;0.83;100.00
21781;BME280;52576;53.614;9.894;2024-01-15T03:18:44;98896.84;;;0.84;100.00
21781;BME280;52576;53.614;9.894;2024-01-15T03:20:48;98885.69;;;0.84;100.00
21781;BME280;52576;53.614;9.894;2024-01-15T03:22:51;98902.00;;;0.84;100.00
21781;BME280;52576;53.614;9.894;2024-01-15T03:24:53;98898.50;;;0.85;100.00
21781;BME280;52576;53.614;9.894;2024-01-15T03:26:56;98909.75;;;0.84;100.00
21781;BME280;52576;53.614;9.894;2024-01-15T03:29:01;98905.50;;;0.83;100.00
21781;BME280;52576;53.614;9.894;2024-01-15T03:31:04;98916.72;;;0.82;100.00
21781;BME280;52576;53.614;9.894;2024-01-15T03:33:07;98921.06;;;0.82;100.00
21781;BME280;52576;53.614;9.894;2024-01-15T03:35:10;98910.81;;;0.80;100.00
21781;BME280;52576;53.614;9.894;2024-01-15T03:37:13;98902.34;;;0.78;100.00
21781;BME280;52576;53.614;9.894;2024-01-15T03:39:17;98911.88;;;0.78;100.00
21781;BME280;52576;53.614;9.894;2024-01-15T03:41:20;98904.22;;;0.76;100.00
21781;BME280;52576;53.614;9.894;2024-01-15T03:43:23;98906.78;;;0.76;100.00
21781;BME280;52576;53.614;9.894;2024-01-15T03:45:27;98898.31;;;0.74;100.00
21781;BME280;52576;53.614;9.894;2024-01-15T03:47:30;98915.59;;;0.72;100.00
21781;BME280;52576;53.614;9.894;2024-01-15T03:49:33;98921.69;;;0.71;100.00
21781;BME280;52576;53.614;9.894;2024-01-15T03:51:37;98920.03;;;0.70;100.00
21781;BME280;52576;53.614;9.894;2024-01-15T03:53:40;98920.84;;;0.71;100.00
21781;BME280;52576;53.614;9.894;2024-01-15T03:55:43;98912.28;;;0.70;100.00
21781;BME280;52576;53.614;9.894;2024-01-15T03:57:46;98921.84;;;0.68;100.00
21781;BME280;52576;53.614;9.894;2024-01-15T03:59:49;98915.03;;;0.67;100.00
21781;BME280;52576;53.614;9.894;2024-01-15T04:01:53;98915.88;;;0.67;100.00
21781;BME280;52576;53.614;9.894;2024-01-15T04:03:57;98915.88;;;0.67;100.00
21781;BME280;52576;53.614;9.894;2024-01-15T04:06:00;98916.69;;;0.68;100.00
21781;BME280;52576;53.614;9.894;2024-01-15T04:08:03;98913.19;;;0.69;100.00
21781;BME280;52576;53.614;9.894;2024-01-15T04:10:07;98915.69;;;0.71;100.00
21781;BME280;52576;53.614;9.894;2024-01-15T04:12:11;98917.28;;;0.73;100.00
21781;BME280;52576;53.614;9.894;2024-01-15T04:14:14;98918.03;;;0.75;100.00
21781;BME280;52576;53.614;9.894;2024-01-15T04:16:17;98919.69;;;0.76;100.00
21781;BME280;52576;53.614;9.894;2024-01-15T04:18:22;98925.56;;;0.78;99.81
21781;BME280;52576;53.614;9.894;2024-01-15T04:20:25;98917.81;;;0.78;99.51
21781;BME280;52576;53.614;9.894;2024-01-15T04:22:28;98924.47;;;0.82;99.06
21781;BME280;52576;53.614;9.894;2024-01-15T04:24:31;98917.47;;;0.84;98.97
21781;BME280;52576;53.614;9.894;2024-01-15T04:26:35;98925.78;;;0.89;98.83
21781;BME280;52576;53.614;9.894;2024-01-15T04:28:38;98923.97;;;0.91;98.57
21781;BME280;52576;53.614;9.894;2024-01-15T04:30:41;98924.72;;;0.93;98.23
21781;BME280;52576;53.614;9.894;2024-01-15T04:32:44;98927.13;;;0.96;98.12
21781;BME280;52576;53.614;9.894;2024-01-15T04:34:48;98930.44;;;0.98;98.13
21781;BME280;52576;53.614;9.894;2024-01-15T04:36:51;98918.28;;;1.00;98.12
21781;BME280;52576;53.614;9.894;2024-01-15T04:38:54;98925.75;;;1.05;97.85
21781;BME280;52576;53.614;9.894;2024-01-15T04:40:58;98910.09;;;1.08;97.62
21781;BME280;52576;53.614;9.894;2024-01-15T04:43:01;98915.91;;;1.12;97.12
21781;BME280;52576;53.614;9.894;2024-01-15T04:45:04;98909.00;;;1.12;96.90
21781;BME280;52576;53.614;9.894;2024-01-15T04:47:07;98916.56;;;1.15;97.05
21781;BME280;52576;53.614;9.894;2024-01-15T04:49:11;98920.72;;;1.18;96.70
21781;BME280;52576;53.614;9.894;2024-01-15T04:51:15;98910.41;;;1.18;96.71
21781;BME280;52576;53.614;9.894;2024-01-15T04:53:18;98923.13;;;1.21;96.50
21781;BME280;52576;53.614;9.894;2024-01-15T04:55:21;98920.53;;;1.21;96.30
21781;BME280;52576;53.614;9.894;2024-01-15T04:57:24;98914.38;;;1.23;96.40
21781;BME280;52576;53.614;9.894;2024-01-15T04:59:26;98920.19;;;1.27;95.71
21781;BME280;52576;53.614;9.894;2024-01-15T05:01:31;98918.34;;;1.29;95.87
21781;BME280;52576;53.614;9.894;2024-01-15T05:03:34;98914.03;;;1.29;95.64
21781;BME280;52576;53.614;9.894;2024-01-15T05:05:37;98921.66;;;1.31;95.52
21781;BME280;52576;53.614;9.894;2024-01-15T05:07:42;98926.81;;;1.31;95.36
21781;BME280;52576;53.614;9.894;2024-01-15T05:09:45;98917.44;;;1.30;95.39
21781;BME280;52576;53.614;9.894;2024-01-15T05:11:47;98911.53;;;1.28;95.19
21781;BME280;52576;53.614;9.894;2024-01-15T05:13:50;98910.69;;;1.27;95.20
21781;BME280;52576;53.614;9.894;2024-01-15T05:15:53;98915.03;;;1.27;95.08
21781;BME280;52576;53.614;9.894;2024-01-15T05:17:56;98919.34;;;1.26;94.91
21781;BME280;52576;53.614;9.894;2024-01-15T05:19:59;98915.94;;;1.26;94.79
21781;BME280;52576;53.614;9.894;2024-01-15T05:22:03;98921.03;;;1.27;94.80
21781;BME280;52576;53.614;9.894;2024-01-15T05:24:08;98920.19;;;1.27;94.81
21781;BME280;52576;53.614;9.894;2024-01-15T05:26:11;98921.94;;;1.26;94.46
21781;BME280;52576;53.614;9.894;2024-01-15T05:28:14;98921.84;;;1.28;94.76
21781;BME280;52576;53.614;9.894;2024-01-15T05:30:17;98927.75;;;1.30;94.61
21781;BME280;52576;53.614;9.894;2024-01-15T05:32:21;98929.38;;;1.31;94.77
21781;BME280;52576;53.614;9.894;2024-01-15T05:34:24;98923.31;;;1.32;94.69
21781;BME280;52576;53.614;9.894;2024-01-15T05:36:27;98915.47;;;1.33;94.76
21781;BME280;52576;53.614;9.894;2024-01-15T05:38:30;98917.97;;;1.35;94.79
21781;BME280;52576;53.614;9.894;2024-01-15T05:40:35;98923.13;;;1.35;94.93
21781;BME280;52576;53.614;9.894;2024-01-15T05:42:38;98921.47;;;1.34;94.69
21781;BME280;52576;53.614;9.894;2024-01-15T05:44:40;98916.31;;;1.34;94.80
21781;BME280;52576;53.614;9.894;2024-01-15T05:46:43;98929.13;;;1.35;94.72
21781;BME280;52576;53.614;9.894;2024-01-15T05:48:46;98922.31;;;1.34;94.92
21781;BME280;52576;53.614;9.894;2024-01-15T05:50:48;98920.66;;;1.33;94.92
21781;BME280;52576;53.614;9.894;2024-01-15T05:52:51;98926.63;;;1.34;94.91
21781;BME280;52576;53.614;9.894;2024-01-15T05:54:54;98921.47;;;1.34;95.10
21781;BME280;52576;53.614;9.894;2024-01-15T05:56:59;98921.47;;;1.34;94.99
21781;BME280;52576;53.614;9.894;2024-01-15T05:59:02;98926.63;;;1.34;95.13
21781;BME280;52576;53.614;9.894;2024-01-15T06:01:05;98942.88;;;1.36;94.83
21781;BME280;52576;53.614;9.894;2024-01-15T06:03:08;98938.44;;;1.38;94.85
21781;BME280;52576;53.614;9.894;2024-01-15T06:05:11;98944.44;;;1.39;94.63
21781;BME280;52576;53.614;9.894;2024-01-15T06:07:14;98938.34;;;1.40;94.56
21781;BME280;52576;53.614;9.894;2024-01-15T06:09:16;98939.19;;;1.40;94.75
21781;BME280;52576;53.614;9.894;2024-01-15T06:11:20;98943.44;;;1.41;94.53
21781;BME280;52576;53.614;9.894;2024-01-15T06:13:24;98938.28;;;1.41;94.66
21781;BME280;52576;53.614;9.894;2024-01-15T06:15:27;98945.09;;;1.42;94.80
21781;BME280;52576;53.614;9.894;2024-01-15T06:17:30;98939.94;;;1.42;94.81
21781;BME280;52576;53.614;9.894;2024-01-15T06:19:34;98943.25;;;1.44;94.82
21781;BME280;52576;53.614;9.894;2024-01-15T06:21:38;98932.75;;;1.47;94.87
21781;BME280;52576;53.614;9.894;2024-01-15T06:23:41;98936.09;;;1.49;94.79
21781;BME280;52576;53.614;9.894;2024-01-15T06:25:44;98930.81;;;1.51;94.79
21781;BME280;52576;53.614;9.894;2024-01-15T06:27:47;98929.06;;;1.51;94.87
21781;BME280;52576;53.614;9.894;2024-01-15T06:29:52;98940.16;;;1.53;94.69
21781;BME280;52576;53.614;9.894;2024-01-15T06:31:55;98934.06;;;1.54;94.67
21781;BME280;52576;53.614;9.894;2024-01-15T06:33:58;98933.16;;;1.55;94.54
21781;BME280;52576;53.614;9.894;2024-01-15T06:36:08;98933.84;;;1.57;94.29
21781;BME280;52576;53.614;9.894;2024-01-15T06:38:18;98927.69;;;1.60;94.02
21781;BME280;52576;53.614;9.894;2024-01-15T06:40:21;98930.19;;;1.61;93.71
21781;BME280;52576;53.614;9.894;2024-01-15T06:42:24;98927.50;;;1.63;93.29
21781;BME280;52576;53.614;9.894;2024-01-15T06:44:28;98928.34;;;1.63;93.00
21781;BME280;52576;53.614;9.894;2024-01-15T06:46:32;98936.81;;;1.65;92.63
21781;BME280;52576;53.614;9.894;2024-01-15T06:48:35;98942.00;;;1.65;92.79
21781;BME280;52576;53.614;9.894;2024-01-15T06:50:39;98934.97;;;1.67;92.28
21781;BME280;52576;53.614;9.894;2024-01-15T06:52:42;98936.63;;;1.68;92.13
21781;BME280;52576;53.614;9.894;2024-01-15T06:54:45;98946.97;;;1.68;92.08
21781;BME280;52576;53.614;9.894;2024-01-15T06:56:49;98941.81;;;1.68;91.90
21781;BME280;52576;53.614;9.894;2024-01-15T06:58:52;98937.66;;;1.66;91.96
21781;BME280;52576;53.614;9.894;2024-01-15T07:00:55;98952.31;;;1.65;91.58
21781;BME280;52576;53.614;9.894;2024-01-15T07:02:59;98946.41;;;1.63;91.55
21781;BME280;52576;53.614;9.894;2024-01-15T07:05:03;98943.81;;;1.63;91.43
21781;BME280;52576;53.614;9.894;2024-01-15T07:07:07;98939.66;;;1.61;91.08
21781;BME280;52576;53.614;9.894;2024-01-15T07:09:10;98947.50;;;1.59;91.24
21781;BME280;52576;53.614;9.894;2024-01-15T07:11:13;98945.84;;;1.58;90.89
21781;BME280;52576;53.614;9.894;2024-01-15T07:13:16;98948.50;;;1.57;90.96
21781;BME280;52576;53.614;9.894;2024-01-15T07:15:19;98958.00;;;1.56;90.69
21781;BME280;52576;53.614;9.894;2024-01-15T07:17:22;98959.06;;;1.54;90.75
21781;BME280;52576;53.614;9.894;2024-01-15T07:19:27;98953.06;;;1.53;90.52
21781;BME280;52576;53.614;9.894;2024-01-15T07:21:30;98969.38;;;1.54;90.29
21781;BME280;52576;53.614;9.894;2024-01-15T07:23:33;98975.38;;;1.54;89.93
21781;BME280;52576;53.614;9.894;2024-01-15T07:25:36;98958.22;;;1.53;89.87
21781;BME280;52576;53.614;9.894;2024-01-15T07:27:39;98960.81;;;1.53;89.59
21781;BME280;52576;53.614;9.894;2024-01-15T07:29:46;98967.63;;;1.54;88.98
21781;BME280;52576;53.614;9.894;2024-01-15T07:31:51;98970.22;;;1.54;88.92
21781;BME280;52576;53.614;9.894;2024-01-15T07:33:54;98965.03;;;1.54;88.78
21781;BME280;52576;53.614;9.894;2024-01-15T07:35:58;98973.63;;;1.55;88.51
21781;BME280;52576;53.614;9.894;2024-01-15T07:38:04;98975.38;;;1.54;88.33
21781;BME280;52576;53.614;9.894;2024-01-15T07:40:08;98976.22;;;1.55;88.10
21781;BME280;52576;53.614;9.894;2024-01-15T07:42:12;98974.53;;;1.54;87.92
21781;BME280;52576;53.614;9.894;2024-01-15T07:44:15;98980.53;;;1.54;87.45
21781;BME280;52576;53.614;9.894;2024-01-15T07:46:18;98971.88;;;1.55;87.41
21781;BME280;52576;53.614;9.894;2024-01-15T07:48:20;98971.88;;;1.55;87.41
21781;BME280;52576;53.614;9.894;2024-01-15T07:50:24;98975.38;;;1.54;87.38
21781;BME280;52576;53.614;9.894;2024-01-15T07:52:28;98978.78;;;1.55;87.37
21781;BME280;52576;53.614;9.894;2024-01-15T07:54:31;98981.38;;;1.55;87.44
21781;BME280;52576;53.614;9.894;2024-01-15T07:56:53;98987.38;;;1.55;87.30
21781;BME280;52576;53.614;9.894;2024-01-15T07:58:56;98987.38;;;1.55;86.91
21781;BME280;52576;53.614;9.894;2024-01-15T08:00:59;98987.38;;;1.55;86.82
21781;BME280;52576;53.614;9.894;2024-01-15T08:03:02;98990.66;;;1.57;86.97
21781;BME280;52576;53.614;9.894;2024-01-15T08:05:06;98988.06;;;1.57;86.82
21781;BME280;52576;53.614;9.894;2024-01-15T08:07:09;98992.31;;;1.58;87.04
21781;BME280;52576;53.614;9.894;2024-01-15T08:09:13;98995.66;;;1.60;87.10
21781;BME280;52576;53.614;9.894;2024-01-15T08:11:16;98992.16;;;1.61;87.10
21781;BME280;52576;53.614;9.894;2024-01-15T08:13:19;98992.16;;;1.61;87.08
21781;BME280;52576;53.614;9.894;2024-01-15T08:15:22;99002.47;;;1.61;87.09
21781;BME280;52576;53.614;9.894;2024-01-15T08:17:28;98999.81;;;1.63;87.28
21781;BME280;52576;53.614;9.894;2024-01-15T08:19:31;98995.66;;;1.60;87.52
21781;BME280;52576;53.614;9.894;2024-01-15T08:21:35;98999.16;;;1.59;87.55
21781;BME280;52576;53.614;9.894;2024-01-15T08:23:38;98995.81;;;1.57;87.54
21781;BME280;52576;53.614;9.894;2024-01-15T08:25:41;98995.81;;;1.57;87.50
21781;BME280;52576;53.614;9.894;2024-01-15T08:27:47;99001.00;;;1.57;87.87
21781;BME280;52576;53.614;9.894;2024-01-15T08:29:49;98995.81;;;1.57;87.90
21781;BME280;52576;53.614;9.894;2024-01-15T08:31:52;99003.56;;;1.57;88.21
21781;BME280;52576;53.614;9.894;2024-01-15T08:33:55;99018.16;;;1.58;88.17
21781;BME280;52576;53.614;9.894;2024-01-15T08:35:59;99010.41;;;1.58;88.14
21781;BME280;52576;53.614;9.894;2024-01-15T08:38:02;99012.06;;;1.59;88.15
21781;BME280;52576;53.614;9.894;2024-01-15T08:40:05;99024.97;;;1.59;88.25
21781;BME280;52576;53.614;9.894;2024-01-15T08:42:10;99015.56;;;1.58;88.40
21781;BME280;52576;53.614;9.894;2024-01-15T08:44:13;99009.66;;;1.56;88.50
21781;BME280;52576;53.614;9.894;2024-01-15T08:46:17;99014.81;;;1.56;88.74
21781;BME280;52576;53.614;9.894;2024-01-15T08:48:20;99025.34;;;1.53;88.83
21781;BME280;52576;53.614;9.894;2024-01-15T08:50:23;99028.84;;;1.52;89.08
21781;BME280;52576;53.614;9.894;2024-01-15T08:52:26;99025.53;;;1.50;89.17
21781;BME280;52576;53.614;9.894;2024-01-15T08:54:29;99035.94;;;1.49;89.21
21781;BME280;52576;53.614;9.894;2024-01-15T08:56:32;99032.69;;;1.45;89.59
21781;BME280;52576;53.614;9.894;2024-01-15T08:58:37;99021.53;;;1.45;89.70
21781;BME280;52576;53.614;9.894;2024-01-15T09:00:40;99032.88;;;1.42;89.70
21781;BME280;52576;53.614;9.894;2024-01-15T09:02:43;99033.03;;;1.39;89.88
21781;BME280;52576;53.614;9.894;2024-01-15T09:04:46;99028.03;;;1.36;90.13
21781;BME280;52576;53.614;9.894;2024-01-15T09:06:50;99022.13;;;1.34;90.27
21781;BME280;52576;53.614;9.894;2024-01-15T09:08:53;99030.78;;;1.33;90.46
21781;BME280;52576;53.614;9.894;2024-01-15T09:10:56;99029.97;;;1.32;90.68
21781;BME280;52576;53.614;9.894;2024-01-15T09:13:00;99042.03;;;1.32;90.89
21781;BME280;52576;53.614;9.894;2024-01-15T09:15:07;99039.53;;;1.30;91.12
21781;BME280;52576;53.614;9.894;2024-01-15T09:17:10;99047.19;;;1.32;91.22
21781;BME280;52576;53.614;9.894;2024-01-15T09:19:13;99042.13;;;1.30;91.20
21781;BME280;52576;53.614;9.894;2024-01-15T09:21:16;99047.41;;;1.29;91.18
21781;BME280;52576;53.614;9.894;2024-01-15T09:23:19;99044.06;;;1.27;91.43
21781;BME280;52576;53.614;9.894;2024-01-15T09:25:22;99040.00;;;1.23;91.43
21781;BME280;52576;53.614;9.894;2024-01-15T09:27:25;99040.91;;;1.22;91.65
21781;BME280;52576;53.614;9.894;2024-01-15T09:29:28;99043.66;;;1.19;91.73
21781;BME280;52576;53.614;9.894;2024-01-15T09:31:32;99051.41;;;1.19;91.97
21781;BME280;52576;53.614;9.894;2024-01-15T09:33:36;99061.72;;;1.19;92.08
21781;BME280;52576;53.614;9.894;2024-01-15T09:35:39;99062.63;;;1.18;92.07
21781;BME280;52576;53.614;9.894;2024-01-15T09:37:42;99069.63;;;1.16;92.19
21781;BME280;52576;53.614;9.894;2024-01-15T09:39:49;99080.88;;;1.15;92.34
21781;BME280;52576;53.614;9.894;2024-01-15T09:41:52;99075.03;;;1.11;92.48
21781;BME280;52576;53.614;9.894;2024-01-15T09:43:56;99083.88;;;1.07;92.61
21781;BME280;52576;53.614;9.894;2024-01-15T09:45:59;99080.72;;;1.02;92.58
21781;BME280;52576;53.614;9.894;2024-01-15T09:48:05;99077.72;;;0.94;92.85
21781;BME280;52576;53.614;9.894;2024-01-15T09:50:09;99086.03;;;0.83;93.11
21781;BME280;52576;53.614;9.894;2024-01-15T09:52:12;99085.72;;;0.74;93.17
21781;BME280;52576;53.614;9.894;2024-01-15T09:54:17;99097.34;;;0.65;93.69
21781;BME280;52576;53.614;9.894;2024-01-15T09:56:20;99092.50;;;0.59;93.84
21781;BME280;52576;53.614;9.894;2024-01-15T09:58:23;99103.13;;;0.53;94.28
21781;BME280;52576;53.614;9.894;2024-01-15T10:00:28;99101.66;;;0.49;94.58
21781;BME280;52576;53.614;9.894;2024-01-15T10:02:33;99113.94;;;0.44;94.64
21781;BME280;52576;53.614;9.894;2024-01-15T10:04:39;99095.22;;;0.40;95.18
21781;BME280;52576;53.614;9.894;2024-01-15T10:06:44;99093.63;;;0.38;95.74
21781;BME280;52576;53.614;9.894;2024-01-15T10:08:50;99095.44;;;0.36;95.91
21781;BME280;52576;53.614;9.894;2024-01-15T10:10:54;99092.88;;;0.36;96.29
21781;BME280;52576;53.614;9.894;2024-01-15T10:12:58;99106.50;;;0.38;96.56
21781;BME280;52576;53.614;9.894;2024-01-15T10:15:01;99104.75;;;0.38;96.84
21781;BME280;52576;53.614;9.894;2024-01-15T10:17:12;99107.25;;;0.40;96.96
21781;BME280;52576;53.614;9.894;2024-01-15T10:19:16;99106.19;;;0.44;97.07
21781;BME280;52576;53.614;9.894;2024-01-15T10:21:20;99104.31;;;0.47;97.39
21781;BME280;52576;53.614;9.894;2024-01-15T10:23:23;99104.97;;;0.51;97.48
21781;BME280;52576;53.614;9.894;2024-01-15T10:25:26;99114.94;;;0.57;97.68
21781;BME280;52576;53.614;9.894;2024-01-15T10:27:29;99121.59;;;0.61;97.77
21781;BME280;52576;53.614;9.894;2024-01-15T10:29:31;99115.38;;;0.65;97.96
21781;BME280;52576;53.614;9.894;2024-01-15T10:31:34;99111.75;;;0.69;97.97
21781;BME280;52576;53.614;9.894;2024-01-15T10:33:38;99115.81;;;0.73;98.16
21781;BME280;52576;53.614;9.894;2024-01-15T10:35:41;99125.22;;;0.74;98.07
21781;BME280;52576;53.614;9.894;2024-01-15T10:37:47;99115.66;;;0.76;98.08
21781;BME280;52576;53.614;9.894;2024-01-15T10:39:50;99132.81;;;0.77;98.37
21781;BME280;52576;53.614;9.894;2024-01-15T10:41:54;99131.13;;;0.76;98.21
21781;BME280;52576;53.614;9.894;2024-01-15T10:43:57;99126.13;;;0.73;98.42
21781;BME280;52576;53.614;9.894;2024-01-15T10:46:02;99127.03;;;0.72;97.94
21781;BME280;52576;53.614;9.894;2024-01-15T10:48:06;99128.13;;;0.68;97.86
21781;BME280;52576;53.614;9.894;2024-01-15T10:50:10;99131.75;;;0.64;98.01
21781;BME280;52576;53.614;9.894;2024-01-15T10:52:14;99137.06;;;0.61;98.08
21781;BME280;52576;53.614;9.894;2024-01-15T10:54:19;99141.56;;;0.57;97.82
21781;BME280;52576;53.614;9.894;2024-01-15T10:56:23;99137.38;;;0.55;98.07
21781;BME280;52576;53.614;9.894;2024-01-15T10:58:27;99140.88;;;0.54;98.17
21781;BME280;52576;53.614;9.894;2024-01-15T11:00:32;99144.38;;;0.53;98.28